aviador You're here:

FAKM Decoded Metar

KIMBERLEY in SOUTH AFRICA
Report Time2018-02-21 04:00:00
UTC Time2018-02-21 05:08:04
Flight Rules Old
Wind010° at 11 kt
W.Decomp.*RWY 02: 10.8 kt HW 2.1 kt RCW
RWY 10: 3.9 kt HW 10.3 kt LCW
W.Rank010° ranks 1
Current wind is above 010° avg. (9.2)
Visibility9999 m
Phenomena:N/A
Clouds:N/A
Expected CloudBase > 2,000 ft AGL from Temp-Dew spread
CeilingNone
Temp21°C (ISA +14)
Dew Point16°C (73% RH)
AAT19.0°C
QNH1018 hPa
Density Alt5,594 ft
Elevation3,911 ft
Report Wrong Elevation
Raw Report
METAR COR FAKM 210400Z 01011KT CAVOK 21/16 Q1018=

Extra information for FAKM:More info

Metar Taf Metar & Taf Last 4 Metars F.Rules Stats Wind Profile Meteogram Temp Stats Airport Information Weather charts Add Link Nearby VenuesMetar ALERT Operation Metar Decoded Social comments